createdAt,value
2022-11-30T00:00:26.625Z,62.63
2022-11-30T00:02:58.353Z,63.06
2022-11-30T00:05:28.572Z,63.07
2022-11-30T00:08:01.605Z,62.97
2022-11-30T00:10:31.819Z,62.70
2022-11-30T00:13:01.966Z,63.06
2022-11-30T00:15:33.392Z,62.53
2022-11-30T00:18:05.372Z,62.73
2022-11-30T00:20:35.516Z,62.83
2022-11-30T00:23:05.585Z,62.59
2022-11-30T00:25:36.964Z,62.97
2022-11-30T00:28:07.112Z,62.95
2022-11-30T00:30:39.899Z,62.65
2022-11-30T00:33:09.997Z,63.20
2022-11-30T00:35:40.256Z,63.10
2022-11-30T00:38:10.282Z,62.92
2022-11-30T00:40:40.724Z,63.05
2022-11-30T00:43:10.842Z,63.32
2022-11-30T00:45:41.760Z,63.04
2022-11-30T00:48:11.825Z,62.89
2022-11-30T00:50:41.970Z,63.29
2022-11-30T00:53:12.055Z,63.33
2022-11-30T00:55:43.985Z,63.17
2022-11-30T00:58:14.816Z,62.94
2022-11-30T01:00:44.908Z,63.26
2022-11-30T01:03:15.153Z,62.86
2022-11-30T01:05:45.348Z,62.93
2022-11-30T01:08:15.445Z,62.84
2022-11-30T01:10:47.727Z,63.01
2022-11-30T01:13:17.862Z,63.38
2022-11-30T01:15:48.582Z,62.74
2022-11-30T01:18:18.682Z,62.67
2022-11-30T01:20:48.823Z,63.11
2022-11-30T01:23:18.915Z,62.76
2022-11-30T01:25:55.922Z,62.55
2022-11-30T01:28:26.023Z,62.61
2022-11-30T01:31:01.195Z,62.70
2022-11-30T01:33:31.779Z,62.86
2022-11-30T01:36:12.069Z,62.41
2022-11-30T01:38:45.523Z,63.15
2022-11-30T01:41:22.031Z,63.26
2022-11-30T01:43:55.325Z,62.62
2022-11-30T01:46:45.324Z,62.97
2022-11-30T01:49:26.401Z,62.56
2022-11-30T01:52:05.037Z,62.64
2022-11-30T01:54:43.289Z,62.74
2022-11-30T01:57:30.002Z,62.72
2022-11-30T02:00:03.135Z,62.74
2022-11-30T02:02:59.995Z,62.18
2022-11-30T02:05:30.542Z,62.91
2022-11-30T02:08:01.399Z,62.85
2022-11-30T02:10:34.754Z,62.64
2022-11-30T02:13:45.130Z,62.80
2022-11-30T02:16:33.148Z,62.63
2022-11-30T02:19:54.422Z,62.20
2022-11-30T02:22:52.253Z,62.36
2022-11-30T02:25:40.178Z,62.75
2022-11-30T02:28:45.338Z,62.26
2022-11-30T02:31:22.029Z,62.57
2022-11-30T02:33:53.103Z,63.06
2022-11-30T02:36:24.403Z,63.09
2022-11-30T02:38:55.575Z,62.58
2022-11-30T02:41:25.654Z,63.07
2022-11-30T02:43:55.800Z,63.11
2022-11-30T02:46:42.322Z,63.18
2022-11-30T02:49:24.189Z,62.93
2022-11-30T02:51:57.010Z,63.01
2022-11-30T02:54:27.262Z,62.75
2022-11-30T02:56:57.763Z,63.35
2022-11-30T02:59:28.327Z,63.19
2022-11-30T03:01:58.555Z,63.05
2022-11-30T03:04:28.754Z,63.15
2022-11-30T03:06:59.291Z,63.22
2022-11-30T03:09:29.351Z,63.39
2022-11-30T03:11:59.524Z,62.99
2022-11-30T03:14:29.600Z,62.91
2022-11-30T03:16:59.826Z,63.15
2022-11-30T03:19:29.967Z,63.03
2022-11-30T03:22:00.390Z,63.56
2022-11-30T03:24:30.549Z,63.43
2022-11-30T03:27:00.703Z,63.45
2022-11-30T03:29:30.843Z,63.07
2022-11-30T03:32:00.932Z,63.14
2022-11-30T03:34:31.012Z,63.29
2022-11-30T03:37:01.068Z,63.12
2022-11-30T03:39:31.233Z,63.41
2022-11-30T03:42:01.367Z,63.34
2022-11-30T03:44:31.569Z,63.37
2022-11-30T03:47:01.754Z,63.63
2022-11-30T03:49:31.793Z,63.56
2022-11-30T03:52:02.512Z,63.62
2022-11-30T03:54:32.643Z,63.59
2022-11-30T03:57:02.678Z,63.51
2022-11-30T03:59:32.762Z,63.38
2022-11-30T04:02:02.875Z,63.25
2022-11-30T04:04:33.043Z,63.01
2022-11-30T04:07:03.228Z,63.18
2022-11-30T04:09:33.409Z,63.41
2022-11-30T04:12:03.684Z,62.99
2022-11-30T04:14:33.802Z,62.84
2022-11-30T04:17:04.052Z,63.25
2022-11-30T04:19:34.317Z,63.43
2022-11-30T04:22:04.390Z,63.24
2022-11-30T04:24:34.565Z,63.45
2022-11-30T04:27:04.605Z,63.62
2022-11-30T04:29:34.727Z,63.37
2022-11-30T04:32:04.994Z,63.43
2022-11-30T04:34:35.054Z,63.04
2022-11-30T04:37:05.060Z,63.04
2022-11-30T04:39:35.171Z,63.21
2022-11-30T04:42:05.279Z,63.40
2022-11-30T04:44:35.404Z,62.88
2022-11-30T04:47:05.458Z,63.24
2022-11-30T04:49:35.648Z,63.64
2022-11-30T04:52:05.722Z,63.09
2022-11-30T04:54:35.797Z,63.29
2022-11-30T04:57:06.633Z,62.93
2022-11-30T04:59:36.697Z,63.05
2022-11-30T05:02:06.912Z,63.20
2022-11-30T05:04:37.128Z,62.93
2022-11-30T05:07:07.631Z,63.71
2022-11-30T05:09:37.669Z,63.19
2022-11-30T05:12:08.021Z,63.32
2022-11-30T05:14:38.512Z,63.45
2022-11-30T05:17:08.737Z,63.01
2022-11-30T05:19:38.910Z,63.03
2022-11-30T05:22:09.076Z,63.27
2022-11-30T05:24:39.214Z,62.86
2022-11-30T05:27:15.387Z,63.28
2022-11-30T05:29:48.117Z,62.95
2022-11-30T05:32:18.592Z,63.37
2022-11-30T05:34:51.601Z,63.31
2022-11-30T05:37:21.956Z,63.26
2022-11-30T05:39:52.137Z,63.19
2022-11-30T05:42:22.334Z,63.16
2022-11-30T05:44:52.513Z,62.96
2022-11-30T05:47:22.685Z,63.04
2022-11-30T05:49:52.836Z,62.80
2022-11-30T05:52:22.858Z,63.32
2022-11-30T05:54:53.050Z,63.04
2022-11-30T05:57:23.143Z,62.82
2022-11-30T05:59:53.325Z,63.15
2022-11-30T06:02:27.929Z,62.73
2022-11-30T06:04:58.422Z,63.17
2022-11-30T06:07:28.553Z,63.08
2022-11-30T06:09:58.792Z,62.78
2022-11-30T06:12:29.161Z,62.86
2022-11-30T06:14:59.228Z,62.97
2022-11-30T06:17:29.329Z,62.91
2022-11-30T06:19:59.471Z,62.91
2022-11-30T06:22:31.109Z,62.68
2022-11-30T06:25:01.254Z,62.98
2022-11-30T06:27:32.235Z,62.61
2022-11-30T06:30:02.771Z,62.86
2022-11-30T06:32:32.967Z,63.09
2022-11-30T06:35:03.179Z,63.00
2022-11-30T06:37:36.455Z,63.19
2022-11-30T06:40:08.451Z,63.02
2022-11-30T06:42:39.862Z,63.10
2022-11-30T06:45:10.646Z,63.21
2022-11-30T06:47:40.709Z,63.26
2022-11-30T06:50:12.892Z,63.05
2022-11-30T06:52:43.066Z,62.79
2022-11-30T06:55:13.087Z,63.09
2022-11-30T06:57:43.209Z,62.74
2022-11-30T07:00:14.318Z,62.91
2022-11-30T07:02:44.781Z,63.17
2022-11-30T07:05:14.873Z,63.02
2022-11-30T07:07:45.073Z,63.06
2022-11-30T07:10:19.957Z,62.79
2022-11-30T07:12:50.567Z,63.04
2022-11-30T07:15:20.636Z,63.36
2022-11-30T07:17:50.862Z,62.92
2022-11-30T07:20:21.052Z,62.94
2022-11-30T07:22:55.732Z,62.89
2022-11-30T07:25:44.261Z,62.96
2022-11-30T07:28:14.418Z,63.00
2022-11-30T07:30:44.529Z,63.19
2022-11-30T07:33:14.624Z,62.78
2022-11-30T07:35:44.774Z,63.00
2022-11-30T07:38:14.829Z,62.78
2022-11-30T07:40:45.070Z,62.84
2022-11-30T07:43:16.344Z,62.94
2022-11-30T07:45:54.627Z,62.73
2022-11-30T07:48:25.004Z,63.29
2022-11-30T07:50:55.105Z,63.16
2022-11-30T07:53:25.148Z,62.89
2022-11-30T07:56:00.999Z,63.02
2022-11-30T07:58:31.993Z,63.02
2022-11-30T08:01:13.247Z,62.69
2022-11-30T08:03:43.488Z,63.31
2022-11-30T08:06:16.928Z,62.97
2022-11-30T08:08:49.119Z,62.99
2022-11-30T08:11:24.666Z,62.90
2022-11-30T08:13:55.174Z,62.75
2022-11-30T08:16:27.930Z,63.15
2022-11-30T08:18:58.695Z,63.15
2022-11-30T08:21:28.874Z,63.02
2022-11-30T08:23:59.200Z,63.06
2022-11-30T08:26:31.915Z,62.66
2022-11-30T08:29:02.314Z,62.72
2022-11-30T08:31:34.623Z,63.20
2022-11-30T08:34:08.188Z,62.45
2022-11-30T08:36:39.975Z,62.56
2022-11-30T08:39:12.826Z,62.99
2022-11-30T08:41:42.948Z,62.78
2022-11-30T08:44:13.061Z,62.87
2022-11-30T08:46:51.628Z,62.58
2022-11-30T08:55:05.602Z,62.49
2022-11-30T08:57:35.691Z,62.66
2022-11-30T09:00:07.134Z,62.67
2022-11-30T09:02:37.861Z,62.68
2022-11-30T09:05:08.190Z,62.59
2022-11-30T09:07:38.331Z,62.41
2022-11-30T09:10:08.859Z,62.50
2022-11-30T09:12:40.455Z,62.94
2022-11-30T09:15:11.457Z,62.48
2022-11-30T09:17:41.890Z,62.66
2022-11-30T09:20:12.536Z,62.26
2022-11-30T09:22:42.791Z,62.28
2022-11-30T09:25:12.979Z,62.11
2022-11-30T09:27:43.056Z,62.18
2022-11-30T09:30:13.618Z,62.00
2022-11-30T09:32:43.846Z,62.27
2022-11-30T09:35:14.112Z,62.38
2022-11-30T09:37:44.202Z,62.19
2022-11-30T09:40:15.344Z,62.22
2022-11-30T09:43:11.564Z,61.82
2022-11-30T09:45:47.858Z,62.00
2022-11-30T09:48:30.269Z,61.05
2022-11-30T09:51:09.339Z,61.42
2022-11-30T09:53:43.482Z,61.95
2022-11-30T09:56:23.375Z,60.97
2022-11-30T09:59:02.655Z,61.73
2022-11-30T10:01:37.507Z,61.96
2022-11-30T10:04:21.974Z,61.32
2022-11-30T10:07:14.116Z,60.82
2022-11-30T10:10:33.844Z,60.33
2022-11-30T10:13:49.365Z,60.81
2022-11-30T10:16:39.573Z,60.69
2022-11-30T10:19:18.817Z,61.46
2022-11-30T10:22:06.406Z,60.76
2022-11-30T10:24:57.287Z,61.12
2022-11-30T10:27:34.682Z,60.98
2022-11-30T10:30:13.998Z,61.00
2022-11-30T10:32:47.904Z,61.27
2022-11-30T10:35:45.931Z,60.34
2022-11-30T10:38:34.738Z,60.85
2022-11-30T10:41:18.270Z,61.35
2022-11-30T10:44:39.716Z,60.56
2022-11-30T10:47:22.779Z,60.52
2022-11-30T10:49:54.242Z,60.93
2022-11-30T10:52:49.683Z,60.27
2022-11-30T10:55:25.753Z,60.89
2022-11-30T10:58:07.828Z,60.88
2022-11-30T11:00:39.426Z,60.98
2022-11-30T11:03:26.680Z,60.22
2022-11-30T11:06:13.987Z,60.39
2022-11-30T11:08:45.695Z,61.13
2022-11-30T11:11:36.798Z,60.68
2022-11-30T11:14:22.441Z,60.83
2022-11-30T11:17:19.487Z,60.31
2022-11-30T11:19:50.471Z,58.91
2022-11-30T11:22:23.586Z,60.61
2022-11-30T11:25:34.056Z,59.36
2022-11-30T11:28:19.812Z,60.27
2022-11-30T11:30:55.095Z,60.95
2022-11-30T11:33:29.881Z,60.96
2022-11-30T11:36:08.994Z,60.18
2022-11-30T11:38:44.943Z,60.22
2022-11-30T11:41:35.803Z,59.65
2022-11-30T11:44:12.177Z,60.01
2022-11-30T11:47:02.994Z,59.67
2022-11-30T11:49:36.407Z,60.67
2022-11-30T11:52:09.630Z,60.43
2022-11-30T11:54:47.588Z,60.88
2022-11-30T11:57:23.018Z,60.49
2022-11-30T11:59:55.814Z,60.33
2022-11-30T12:02:28.612Z,60.73
2022-11-30T12:05:12.517Z,60.29
2022-11-30T12:07:54.922Z,60.39
2022-11-30T12:13:22.538Z,60.23
2022-11-30T12:16:00.360Z,60.57
2022-11-30T12:18:46.527Z,60.68
2022-11-30T12:21:36.719Z,60.55
2022-11-30T12:24:24.326Z,60.69
2022-11-30T12:27:03.645Z,60.95
2022-11-30T12:29:42.597Z,60.95
2022-11-30T12:33:06.791Z,59.71
2022-11-30T12:35:49.611Z,61.10
2022-11-30T12:38:44.370Z,60.76
2022-11-30T12:41:27.083Z,60.75
2022-11-30T12:43:57.266Z,61.04
2022-11-30T12:46:30.442Z,61.09
2022-11-30T12:49:12.745Z,60.69
2022-11-30T12:51:57.311Z,60.55
2022-11-30T12:54:36.395Z,60.98
2022-11-30T12:57:21.775Z,60.86
2022-11-30T12:59:55.006Z,61.35
2022-11-30T13:02:40.320Z,60.55
2022-11-30T13:05:22.979Z,60.97
2022-11-30T13:08:03.972Z,60.40
2022-11-30T13:10:49.490Z,60.40
2022-11-30T13:13:25.808Z,61.50
2022-11-30T13:15:56.906Z,61.29
2022-11-30T13:18:28.425Z,61.55
2022-11-30T13:21:19.903Z,61.36
2022-11-30T13:24:06.024Z,60.66
2022-11-30T13:27:13.489Z,60.79
2022-11-30T13:29:55.198Z,61.08
2022-11-30T13:32:56.799Z,61.57
2022-11-30T13:35:28.205Z,61.20
2022-11-30T13:41:09.727Z,61.44
2022-11-30T13:43:48.196Z,61.20
2022-11-30T13:46:24.059Z,61.34
2022-11-30T13:49:12.800Z,61.08
2022-11-30T13:51:43.397Z,61.43
2022-11-30T13:54:46.565Z,61.19
2022-11-30T13:57:18.406Z,61.35
2022-11-30T13:59:51.660Z,61.84
2022-11-30T14:02:34.247Z,61.32
2022-11-30T14:05:16.605Z,61.57
2022-11-30T14:07:50.793Z,61.46
2022-11-30T14:10:33.044Z,61.67
2022-11-30T14:13:09.594Z,61.74
2022-11-30T14:15:39.714Z,61.53
2022-11-30T14:18:09.822Z,61.63
2022-11-30T14:20:51.333Z,61.66
2022-11-30T14:23:28.714Z,61.65
2022-11-30T14:26:11.206Z,61.81
2022-11-30T14:29:03.451Z,61.60
2022-11-30T14:31:39.787Z,61.80
2022-11-30T14:34:20.334Z,61.20
2022-11-30T14:36:58.308Z,61.12
2022-11-30T14:39:41.975Z,61.00
2022-11-30T14:42:27.846Z,61.57
2022-11-30T14:44:58.376Z,61.41
2022-11-30T14:47:33.590Z,61.38
2022-11-30T14:50:08.413Z,61.55
2022-11-30T14:52:52.612Z,61.63
2022-11-30T14:55:34.966Z,61.76
2022-11-30T14:58:23.741Z,61.72
2022-11-30T15:00:54.221Z,61.59
2022-11-30T15:03:40.270Z,61.48
2022-11-30T15:06:17.403Z,61.79
2022-11-30T15:08:53.269Z,61.73
2022-11-30T15:11:24.046Z,61.72
2022-11-30T15:13:57.011Z,61.81
2022-11-30T15:16:30.845Z,61.73
2022-11-30T15:19:22.867Z,61.72
2022-11-30T15:21:57.432Z,62.12
2022-11-30T15:24:31.211Z,62.12
2022-11-30T15:27:10.922Z,61.62
2022-11-30T15:29:48.897Z,61.83
2022-11-30T15:32:23.310Z,61.82
2022-11-30T15:34:57.505Z,61.70
2022-11-30T15:37:35.421Z,62.01
2022-11-30T15:40:09.116Z,61.72
2022-11-30T15:42:40.696Z,62.12
2022-11-30T15:45:25.480Z,61.73
2022-11-30T15:47:57.289Z,61.78
2022-11-30T15:50:28.522Z,62.26
2022-11-30T15:53:01.705Z,62.02
2022-11-30T15:55:54.021Z,61.55
2022-11-30T15:58:45.690Z,61.76
2022-11-30T16:01:24.896Z,62.10
2022-11-30T16:03:55.120Z,61.78
2022-11-30T16:06:45.611Z,61.77
2022-11-30T16:09:22.363Z,62.24
2022-11-30T16:11:57.637Z,62.03
2022-11-30T16:14:28.455Z,62.19
2022-11-30T16:17:01.582Z,62.28
2022-11-30T16:19:35.626Z,61.36
2022-11-30T16:22:06.321Z,62.02
2022-11-30T16:24:37.512Z,62.36
2022-11-30T16:27:19.288Z,61.99
2022-11-30T16:29:52.567Z,62.36
2022-11-30T16:32:23.329Z,62.22
2022-11-30T16:34:54.719Z,61.96
2022-11-30T16:37:24.835Z,61.84
2022-11-30T16:39:54.943Z,62.34
2022-11-30T16:42:25.100Z,62.39
2022-11-30T16:44:55.201Z,62.04
2022-11-30T16:47:25.807Z,61.98
2022-11-30T16:49:55.916Z,62.39
2022-11-30T16:52:26.025Z,62.10
2022-11-30T16:54:56.183Z,62.22
2022-11-30T16:57:26.300Z,62.25
2022-11-30T16:59:57.677Z,62.45
2022-11-30T17:02:28.441Z,62.48
2022-11-30T17:04:59.603Z,62.39
2022-11-30T17:07:29.863Z,62.51
2022-11-30T17:10:00.159Z,62.18
2022-11-30T17:12:30.306Z,62.43
2022-11-30T17:15:00.397Z,62.58
2022-11-30T17:17:30.504Z,62.13
2022-11-30T17:20:01.970Z,62.56
2022-11-30T17:22:33.925Z,62.21
2022-11-30T17:25:05.873Z,62.20
2022-11-30T17:27:35.973Z,62.26
2022-11-30T17:30:06.825Z,62.25
2022-11-30T17:32:37.078Z,62.23
2022-11-30T17:35:08.870Z,62.23
2022-11-30T17:37:38.991Z,62.85
2022-11-30T17:40:13.254Z,62.34
2022-11-30T17:42:46.564Z,62.88
2022-11-30T17:45:16.833Z,62.36
2022-11-30T17:47:46.928Z,62.66
2022-11-30T17:50:17.175Z,62.59
2022-11-30T17:52:47.283Z,62.51
2022-11-30T17:55:18.488Z,62.36
2022-11-30T17:57:48.626Z,62.31
2022-11-30T18:00:19.286Z,62.97
2022-11-30T18:02:52.875Z,62.71
2022-11-30T18:05:23.092Z,62.88
2022-11-30T18:07:53.279Z,63.01
2022-11-30T18:10:23.397Z,62.52
2022-11-30T18:12:53.516Z,62.49
2022-11-30T18:15:23.558Z,62.35
2022-11-30T18:17:55.266Z,62.44
2022-11-30T18:20:25.283Z,62.50
2022-11-30T18:22:55.388Z,62.39
2022-11-30T18:25:25.523Z,62.71
2022-11-30T18:27:55.970Z,63.00
2022-11-30T18:30:26.271Z,62.79
2022-11-30T18:32:56.451Z,62.85
2022-11-30T18:35:26.685Z,62.78
2022-11-30T18:37:57.467Z,63.06
2022-11-30T18:40:27.594Z,62.80
2022-11-30T18:42:57.711Z,62.85
2022-11-30T18:45:27.904Z,62.98
2022-11-30T18:47:57.909Z,62.66
2022-11-30T18:50:28.750Z,62.60
2022-11-30T18:52:58.862Z,62.74
2022-11-30T18:55:29.078Z,62.91
2022-11-30T18:58:01.227Z,62.66
2022-11-30T19:00:31.458Z,62.79
2022-11-30T19:03:01.919Z,62.83
2022-11-30T19:05:32.513Z,62.97
2022-11-30T19:08:08.336Z,62.95
2022-11-30T19:10:40.512Z,62.96
2022-11-30T19:13:11.727Z,63.03
2022-11-30T19:15:43.827Z,63.03
2022-11-30T19:18:19.210Z,63.41
2022-11-30T19:20:53.374Z,63.37
2022-11-30T19:23:24.878Z,63.11
2022-11-30T19:26:01.334Z,63.42
2022-11-30T19:28:34.341Z,62.99
2022-11-30T19:31:16.200Z,63.11
2022-11-30T19:33:52.058Z,63.43
2022-11-30T19:36:28.443Z,63.43
2022-11-30T19:39:00.832Z,63.32
2022-11-30T19:41:31.696Z,63.45
2022-11-30T19:44:03.990Z,63.28
2022-11-30T19:46:37.318Z,63.63
2022-11-30T19:49:11.899Z,63.39
2022-11-30T19:51:42.549Z,63.24
2022-11-30T19:54:13.132Z,63.34
2022-11-30T19:56:44.699Z,63.60
2022-11-30T19:59:15.554Z,63.60
2022-11-30T20:01:46.017Z,63.63
2022-11-30T20:04:16.833Z,63.50
2022-11-30T20:06:48.412Z,63.56
2022-11-30T20:09:20.087Z,63.63
2022-11-30T20:11:50.779Z,63.44
2022-11-30T20:14:22.853Z,63.80
2022-11-30T20:16:53.597Z,63.92
2022-11-30T20:19:27.170Z,63.54
2022-11-30T20:22:02.769Z,63.67
2022-11-30T20:24:33.428Z,63.52
2022-11-30T20:27:04.827Z,63.52
2022-11-30T20:29:36.681Z,63.68
2022-11-30T20:32:06.818Z,63.67
2022-11-30T20:34:42.391Z,63.67
2022-11-30T20:37:15.867Z,63.92
2022-11-30T20:39:46.524Z,63.80
2022-11-30T20:42:16.856Z,63.69
2022-11-30T20:44:47.313Z,63.89
2022-11-30T20:47:18.130Z,63.58
2022-11-30T20:49:49.807Z,63.51
2022-11-30T20:52:20.257Z,63.57
2022-11-30T20:54:50.636Z,63.62
2022-11-30T20:57:20.977Z,63.88
2022-11-30T20:59:51.237Z,63.52
2022-11-30T21:02:21.492Z,63.71
2022-11-30T21:04:51.767Z,63.81
2022-11-30T21:07:22.039Z,63.75
2022-11-30T21:09:52.491Z,63.80
2022-11-30T21:12:22.992Z,64.13
2022-11-30T21:14:53.250Z,63.71
2022-11-30T21:17:23.417Z,64.10
2022-11-30T21:19:53.595Z,63.65
2022-11-30T21:22:23.808Z,63.79
2022-11-30T21:24:55.035Z,63.62
2022-11-30T21:27:26.036Z,63.84
2022-11-30T21:29:56.197Z,63.86
2022-11-30T21:32:26.337Z,63.56
2022-11-30T21:34:56.474Z,63.26
2022-11-30T21:37:26.666Z,63.72
2022-11-30T21:39:56.778Z,63.50
2022-11-30T21:42:27.542Z,63.47
2022-11-30T21:44:57.625Z,63.56
2022-11-30T21:47:37.066Z,63.49
2022-11-30T21:50:08.133Z,63.84
2022-11-30T21:52:38.393Z,64.03
2022-11-30T21:55:09.104Z,63.59
2022-11-30T21:57:42.351Z,63.96
2022-11-30T22:00:14.530Z,63.57
2022-11-30T22:02:45.471Z,63.79
2022-11-30T22:05:15.742Z,63.58
2022-11-30T22:07:46.178Z,63.71
2022-11-30T22:10:16.391Z,63.53
2022-11-30T22:12:46.526Z,63.65
2022-11-30T22:15:16.718Z,63.90
2022-11-30T22:17:46.917Z,63.55
2022-11-30T22:20:17.832Z,63.41
2022-11-30T22:22:47.989Z,63.26
2022-11-30T22:25:18.133Z,63.46
2022-11-30T22:27:48.183Z,63.15
2022-11-30T22:30:18.527Z,63.48
2022-11-30T22:32:49.899Z,63.21
2022-11-30T22:35:19.962Z,64.04
2022-11-30T22:37:50.095Z,63.35
2022-11-30T22:40:20.275Z,63.35
2022-11-30T22:42:50.347Z,63.26
2022-11-30T22:45:21.227Z,63.36
2022-11-30T22:47:51.426Z,63.53
2022-11-30T22:50:21.595Z,63.49
2022-11-30T22:53:06.186Z,63.29
2022-11-30T22:55:36.668Z,63.25
2022-11-30T22:58:06.835Z,63.44
2022-11-30T23:00:36.929Z,63.27
2022-11-30T23:03:07.061Z,63.30
2022-11-30T23:05:37.290Z,63.09
2022-11-30T23:08:07.500Z,63.54
2022-11-30T23:10:37.713Z,63.73
2022-11-30T23:13:07.772Z,63.11
2022-11-30T23:15:39.783Z,63.60
2022-11-30T23:18:10.130Z,63.29
2022-11-30T23:20:40.288Z,63.39
2022-11-30T23:23:10.509Z,63.38
2022-11-30T23:25:40.644Z,63.32
2022-11-30T23:28:10.734Z,63.28
2022-11-30T23:30:41.011Z,63.19
2022-11-30T23:33:11.112Z,62.88
2022-11-30T23:35:44.443Z,63.20
2022-11-30T23:38:14.482Z,63.00
2022-11-30T23:40:44.648Z,63.27
2022-11-30T23:43:14.711Z,63.29
2022-11-30T23:45:44.829Z,62.91
2022-11-30T23:48:14.891Z,63.26
2022-11-30T23:50:45.592Z,63.07
2022-11-30T23:53:15.814Z,62.94
2022-11-30T23:55:46.062Z,63.11
2022-11-30T23:58:16.373Z,63.17
